Statistiken

Seite 111 von 349 |< · · [108] [109] [110] [111] [112] [113] [114] · · >|

Die meistgelesenen Zitate

Nr. Zitat Pkte. Bew. Aufr. Mails Kom. Datum
5501 Eine Schwalbe macht keinen Sommer (Flug). ... -0.4607 280 4895 0 1 26.08.05 00:00
5502 Die Liebe macht Lappen. ... -1.2654 211 4894 0 1 26.08.05 00:00
5503 Erst schmeicheln, dann kratzen, das schickt ... -1.2429 210 4889 3 4 26.08.05 00:00
5504 Rauch vertreibt die Bienen, Sünde die Engel. ... -1.2170 212 4888 1 0 26.08.05 00:00
5505 Oft schießen trifft das Ziel. ... -1.1705 217 4888 0 0 26.08.05 00:00
5506 Die Zeit gibt Bescheid und verrät alle Bosheit. ... -1.0667 225 4884 2 2 26.08.05 00:00
5507 Nachlässige Eltern ziehen keine guten Kinder. ... -1.0570 228 4884 1 0 26.08.05 00:00
5508 Alter Freunde, alten Weins und alter Schwerter ... -1.2196 214 4884 0 0 26.08.05 00:00
5509 Die Hure kommt schnell ins Haus, Aber langsam heraus. ... -1.1806 216 4882 1 0 26.08.05 00:00
5510 Die Nacht ist keines Menschen Freund. ... -1.2258 217 4882 0 0 26.08.05 00:00
5511 Besser offener Krieg als vermummter Friede. ... -0.7710 262 4881 0 1 26.08.05 00:00
5512 Wer Liebe stiehlt, ist kein Dieb. ... -1.2318 220 4878 0 0 26.08.05 00:00
5513 Früh schlafen gehn und früh aufstehn schließt ... -1.1982 217 4876 2 0 26.08.05 00:00
5514 Daheim bin ich König. ... -1.2254 213 4874 0 7 26.08.05 00:00
5515 Geduld überwindet alles. ... -1.2170 212 4870 0 0 26.08.05 00:00
5516 Jokele, geh du voran! Du hast Stiefel und ... -1.2767 206 4868 3 0 26.08.05 00:00
5517 Wer sich nicht vor seiner Frau fürchtet, hat keine. ... -1.0446 224 4868 1 3 23.09.07 14:51
5518 Nur das Gemeine verkennt man selten. ... -1.1727 220 4868 0 0 11.01.09 17:17
5519 Der Große stürzt: seht seinen Günstling fliehn; Der ... -1.1981 212 4867 0 0 04.12.07 18:42
5520 Auf ein ungezäumt Pferd gehört ein alter Reiter. ... -1.1667 216 4866 0 0 26.08.05 00:00
5521 Alles steht in Gottes Hand. ... -1.0917 218 4865 0 0 26.08.05 00:00
5522 Wer alles will, bekommt nichts. ... -0.9261 230 4864 3 1 26.08.05 00:00
5523 Wer höher fliegt, als er Federn hat, Der ... -1.2452 208 4864 0 0 26.08.05 00:00
5524 Das Glück hilft denen nicht, die sich nicht selbst helfen. ... -1.0000 230 4863 0 1 26.08.05 00:00
5525 Bei manchen Diplomaten-Essen wird die Anzahl ... -1.1330 218 4863 0 2 06.03.07 11:14
5526 Gib blind, nimm sehend. ... -1.0000 230 4861 1 4 26.08.05 00:00
5527 Liebe, Diebe und Furchtsamkeit machen Gespenster. ... -1.2559 211 4856 0 0 26.08.05 00:00
5528 Das Angenehme an den Kindern von Verwandten ... -1.1606 218 4854 0 2 25.02.08 15:50
5529 Wer zweifelt, muß wagen. ... -1.2864 206 4854 0 0 26.08.05 00:00
5530 Heutzutage haben die Wissenschaftler mehr ... -1.0087 230 4852 0 3 09.02.08 13:51
5531 Jeder Arbeiter ist seines Lohnes wert. ... -1.2336 214 4852 0 0 26.08.05 00:00
5532 Man soll das Kind nicht mit dem Bade verschütten. ... 1.1882 845 4848 2 0 26.08.05 00:00
5533 Ein Doktor und ein Bauer wissen mehr denn ... -0.9957 230 4846 1 0 26.08.05 00:00
5534 Die Liebe geht unter sich, nicht über sich. ... -1.2381 210 4841 0 0 26.08.05 00:00
5535 Kein Gewand kleidet schöner als Demut. ... 1.0388 721 4835 0 0 26.08.05 00:00
5536 Zum Verlieren ist nichts besser als Vergessen. ... -1.2170 212 4835 0 0 26.08.05 00:00
5537 Anschauen macht Liebe, Gelegenheit Diebe. ... -1.1545 220 4834 0 0 26.08.05 00:00
5538 Viele können einem helfen. ... -1.2512 207 4833 0 0 26.08.05 00:00
5539 Laß den Storch in seinem Nest zufrieden. ... -0.9478 230 4830 0 1 26.08.05 00:00
5540 Geld führt den Krieg. ... -1.1057 227 4829 3 1 26.08.05 00:00
5541 Journalisten sind die Geburtshelfer und Totengräber ... -0.9615 234 4827 2 0 04.08.05 18:55
5542 Wer leicht traut, wird leicht betrogen. ... -0.9652 230 4827 2 0 26.08.05 00:00
5543 Schlafender Fuchs fängt kein Huhn. ... -1.2670 206 4827 0 0 26.08.05 00:00
5544 Wo Holz gehauen wird, da fallen Späne. ... 0.1947 375 4826 1 2 26.08.05 00:00
5545 Neid ist des Glücks Gefährte. ... -1.1797 217 4826 0 0 26.08.05 00:00
5546 Wenn Hochzeiter und Braut beisammen sind, ... -1.2870 216 4825 0 0 26.08.05 00:00
5547 Hätt' ich Glück und guten Wind, ich führ' ... -1.2315 216 4822 0 0 26.08.05 00:00
5548 Ein Esel frißt keine Feigen. Warum? ... -1.2767 206 4822 0 6 26.08.05 00:00
5549 Schmeichler, Heuchler. ... -0.6115 260 4821 0 0 26.08.05 00:00
5550 Herodes und Pilatus sind gute Freunde. ... -1.2364 220 4821 0 0 26.08.05 00:00

[Favoriten] [Punkte] [Bewertungen] [Aufrufe] [Mails] [Kommentare] [Datum]

Seite 111 von 349 |< · < · [1] [2] [3] [4] [5] [6] [7] [8] [9] [10] [11] [12] [13] [14] [15] [16] [17] [18] [19] [20] [21] [22] [23] [24] [25] [26] [27] [28] [29] [30] [31] [32] [33] [34] [35] [36] [37] [38] [39] [40] [41] [42] [43] [44] [45] [46] [47] [48] [49] [50] [51] [52] [53] [54] [55] [56] [57] [58] [59] [60] [61] [62] [63] [64] [65] [66] [67] [68] [69] [70] [71] [72] [73] [74] [75] [76] [77] [78] [79] [80] [81] [82] [83] [84] [85] [86] [87] [88] [89] [90] [91] [92] [93] [94] [95] [96] [97] [98] [99] [100] [101] [102] [103] [104] [105] [106] [107] [108] [109] [110] [111] [112] [113] [114] [115] [116] [117] [118] [119] [120] [121] [122] [123] [124] [125] [126] [127] [128] [129] [130] [131] [132] [133] [134] [135] [136] [137] [138] [139] [140] [141] [142] [143] [144] [145] [146] [147] [148] [149] [150] [151] [152] [153] [154] [155] [156] [157] [158] [159] [160] [161] [162] [163] [164] [165] [166] [167] [168] [169] [170] [171] [172] [173] [174] [175] [176] [177] [178] [179] [180] [181] [182] [183] [184] [185] [186] [187] [188] [189] [190] [191] [192] [193] [194] [195] [196] [197] [198] [199] [200] [201] [202] [203] [204] [205] [206] [207] [208] [209] [210] [211] [212] [213] [214] [215] [216] [217] [218] [219] [220] [221] [222] [223] [224] [225] [226] [227] [228] [229] [230] [231] [232] [233] [234] [235] [236] [237] [238] [239] [240] [241] [242] [243] [244] [245] [246] [247] [248] [249] [250] [251] [252] [253] [254] [255] [256] [257] [258] [259] [260] [261] [262] [263] [264] [265] [266] [267] [268] [269] [270] [271] [272] [273] [274] [275] [276] [277] [278] [279] [280] [281] [282] [283] [284] [285] [286] [287] [288] [289] [290] [291] [292] [293] [294] [295] [296] [297] [298] [299] [300] [301] [302] [303] [304] [305] [306] [307] [308] [309] [310] [311] [312] [313] [314] [315] [316] [317] [318] [319] [320] [321] [322] [323] [324] [325] [326] [327] [328] [329] [330] [331] [332] [333] [334] [335] [336] [337] [338] [339] [340] [341] [342] [343] [344] [345] [346] [347] [348] [349] · > · >|

Zuletzt gesucht